Time;durP1;ratioP1;P1;durP2;ratioP2;P2;SDS_P1;SDS_P2;PMS_P1;PMS_P2;Temp;Humidity;BMP_temperature;BMP_pressure;BME280_temperature;BME280_humidity;BME280_pressure;Samples;Min_cycle;Max_cycle;Signal;HPM_P1;HPM_P2
2022/12/21 00:01:21;;;;;;;;;;;;;;;;;;5113147;28;1878;-43
2022/12/21 00:04:01;;;;;;;;;;;;;;;;;;5113172;28;1769;-43
2022/12/21 00:06:30;;;;;;;;;;;;;;;;;;5092623;28;1884;-43
2022/12/21 00:08:59;;;;;;;;;;;;;;;;;;5092946;28;1598;-42
2022/12/21 00:11:26;;;;;;;;;;;;;;;;;;5092822;28;1623;-43
2022/12/21 00:13:55;;;;;;;;;;;;;;;;;;5092581;28;2103;-41
2022/12/21 00:16:24;;;;;;;;;;;;;;;;;;5092241;28;1974;-42
2022/12/21 00:18:51;;;;;;;;;;;;;;;;;;5092563;28;2050;-42
2022/12/21 00:21:20;;;;;;;;;;;;;;;;;;5092376;28;1812;-42
2022/12/21 00:23:48;;;;;;;;;;;;;;;;;;5092650;28;1863;-41
2022/12/21 00:26:17;;;;;;;;;;;;;;;;;;5092208;28;1646;-44
2022/12/21 00:28:45;;;;;;;;;;;;;;;;;;5092354;28;1646;-42
2022/12/21 00:31:14;;;;;;;;;;;;;;;;;;5092357;28;1884;-43
2022/12/21 00:33:42;;;;;;;;;;;;;;;;;;5092352;28;2023;-44
2022/12/21 00:36:11;;;;;;;;;;;;;;;;;;5091768;28;1966;-44
2022/12/21 00:38:40;;;;;;;;;;;;;;;;;;5092218;28;2059;-42
2022/12/21 00:41:10;;;;;;;;;;;;;;;;;;5092012;28;1287;-44
2022/12/21 00:43:37;;;;;;;;;;;;;;;;;;5091699;28;1887;-44
2022/12/21 00:46:05;;;;;;;;;;;;;;;;;;5091793;28;1781;-42
2022/12/21 00:48:33;;;;;;;;;;;;;;;;;;5090653;28;1453;-46
2022/12/21 00:51:04;;;;;;;;;;;;;;;;;;5090840;28;2175;-42
2022/12/21 00:53:32;;;;;;;;;;;;;;;;;;5092052;28;2093;-42
2022/12/21 00:56:00;;;;;;;;;;;;;;;;;;5091596;28;2040;-43
2022/12/21 00:58:28;;;;;;;;;;;;;;;;;;5105704;27;1855;-41
2022/12/21 01:00:56;;;;;;;;;;;;;;;;;;5112457;28;1675;-42
2022/12/21 01:03:25;;;;;;;;;;;;;;;;;;5112004;28;1454;-42
2022/12/21 01:05:53;;;;;;;;;;;;;;;;;;5112364;28;1833;-42
2022/12/21 01:08:21;;;;;;;;;;;;;;;;;;5111824;28;1850;-43
2022/12/21 01:10:48;;;;;;;;;;;;;;;;;;5111790;28;1652;-42
2022/12/21 01:13:15;;;;;;;;;;;;;;;;;;5111653;28;1470;-42
2022/12/21 01:15:43;;;;;;;;;;;;;;;;;;5111741;28;2368;-42
2022/12/21 01:18:13;;;;;;;;;;;;;;;;;;5111907;28;1843;-42
2022/12/21 01:20:44;;;;;;;;;;;;;;;;;;5111647;28;1403;-42
2022/12/21 01:23:11;;;;;;;;;;;;;;;;;;5111284;28;2000;-42
2022/12/21 01:25:41;;;;;;;;;;;;;;;;;;5111417;28;1464;-41
2022/12/21 01:28:08;;;;;;;;;;;;;;;;;;5110267;28;1846;-43
2022/12/21 01:30:35;;;;;;;;;;;;;;;;;;5110669;28;2028;-44
2022/12/21 01:33:03;;;;;;;;;;;;;;;;;;5111642;28;1742;-43
2022/12/21 01:35:30;;;;;;;;;;;;;;;;;;5110018;28;1902;-41
2022/12/21 01:37:59;;;;;;;;;;;;;;;;;;5111707;28;1237;-43
2022/12/21 01:40:29;;;;;;;;;;;;;;;;;;5111698;28;1547;-42
2022/12/21 01:42:56;;;;;;;;;;;;;;;;;;5111531;28;1817;-42
2022/12/21 01:45:31;;;;;;;;;;;;;;;;;;5110340;28;1825;-43
2022/12/21 01:48:00;;;;;;;;;;;;;;;;;;5111284;28;2048;-42
2022/12/21 01:50:42;;;;;;;;;;;;;;;;;;5111549;28;1553;-43
2022/12/21 01:53:10;;;;;;;;;;;;;;;;;;5111512;28;1702;-42
2022/12/21 01:55:38;;;;;;;;;;;;;;;;;;5111455;28;1913;-42
2022/12/21 01:58:06;;;;;;;;;;;;;;;;;;5109910;28;1649;-42
2022/12/21 02:00:34;;;;;;;;;;;;;;;;;;5111225;28;1496;-41
2022/12/21 02:03:04;;;;;;;;;;;;;;;;;;5111111;28;2143;-43
2022/12/21 02:05:39;;;;;;;;;;;;;;;;;;5111265;28;1811;-42
2022/12/21 02:08:06;;;;;;;;;;;;;;;;;;5111228;28;1572;-42
2022/12/21 02:10:35;;;;;;;;;;;;;;;;;;5095158;28;1647;-42
2022/12/21 02:13:03;;;;;;;;;;;;;;;;;;5094812;28;1488;-43
2022/12/21 02:15:49;;;;;;;;;;;;;;;;;;5094831;28;2180;-42
2022/12/21 02:18:17;;;;;;;;;;;;;;;;;;5094942;28;1214;-45
2022/12/21 02:20:44;;;;;;;;;;;;;;;;;;5094584;28;1878;-43
2022/12/21 02:23:11;;;;;;;;;;;;;;;;;;5094719;28;1487;-42
2022/12/21 02:26:01;;;;;;;;;;;;;;;;;;5094842;28;1823;-42
2022/12/21 02:28:31;;;;;;;;;;;;;;;;;;5095036;28;2263;-41
2022/12/21 02:31:10;;;;;;;;;;;;;;;;;;5092846;28;1688;-42
2022/12/21 02:33:40;;;;;;;;;;;;;;;;;;5094661;28;1805;-44
2022/12/21 02:36:16;;;;;;;;;;;;;;;;;;5105086;28;1917;-42
2022/12/21 02:38:45;;;;;;;;;;;;;;;;;;5113434;28;1898;-42
2022/12/21 02:41:18;;;;;;;;;;;;;;;;;;5113686;28;1384;-42
2022/12/21 02:46:52;;;;;;;;;;;;;;;;;;5113461;28;1808;-42
2022/12/21 02:49:23;;;;;;;;;;;;;;;;;;5114533;28;1863;-42
2022/12/21 02:52:03;;;;;;;;;;;;;;;;;;5113418;28;1881;-42
2022/12/21 02:54:30;;;;;;;;;;;;;;;;;;5113290;28;1842;-43
2022/12/21 02:56:59;;;;;;;;;;;;;;;;;;5113200;28;1913;-43
2022/12/21 02:59:29;;;;;;;;;;;;;;;;;;5113302;28;1879;-43
2022/12/21 03:02:10;;;;;;;;;;;;;;;;;;5113239;28;1830;-41
2022/12/21 03:05:14;;;;;;;;;;;;;;;;;;5114490;28;1687;-43
2022/12/21 03:07:53;;;;;;;;;;;;;;;;;;5050656;28;1360;-45
2022/12/21 03:10:41;;;;;;;;;;;;;;;;;;5104100;28;1766;-43
2022/12/21 03:13:17;;;;;;;;;;;;;;;;;;5129610;27;2088;-42
2022/12/21 03:15:48;;;;;;;;;;;;;;;;;;5114230;28;1900;-43
2022/12/21 03:18:30;;;;;;;;;;;;;;;;;;5112718;28;1762;-42
2022/12/21 03:21:32;;;;;;;;;;;;;;;;;;5112054;28;1474;-42
2022/12/21 03:24:00;;;;;;;;;;;;;;;;;;5079988;27;1355;-41
2022/12/21 03:26:32;;;;;;;;;;;;;;;;;;5113718;28;1869;-42
2022/12/21 03:29:00;;;;;;;;;;;;;;;;;;5113710;28;1768;-42
2022/12/21 03:31:30;;;;;;;;;;;;;;;;;;5113765;28;1878;-41
2022/12/21 03:34:06;;;;;;;;;;;;;;;;;;5114132;28;1799;-41
2022/12/21 03:36:42;;;;;;;;;;;;;;;;;;5113761;27;1910;-42
2022/12/21 03:39:10;;;;;;;;;;;;;;;;;;5113654;28;1842;-44
2022/12/21 03:41:40;;;;;;;;;;;;;;;;;;5113840;28;1996;-44
2022/12/21 03:44:09;;;;;;;;;;;;;;;;;;5113067;28;1998;-42
2022/12/21 03:46:47;;;;;;;;;;;;;;;;;;5113527;28;1882;-43
2022/12/21 03:49:17;;;;;;;;;;;;;;;;;;5113319;28;1791;-42
2022/12/21 03:51:53;;;;;;;;;;;;;;;;;;5113521;28;1623;-42
2022/12/21 03:54:39;;;;;;;;;;;;;;;;;;5113461;28;1606;-40
2022/12/21 03:57:07;;;;;;;;;;;;;;;;;;5113597;28;1924;-41
2022/12/21 03:59:37;;;;;;;;;;;;;;;;;;5112916;28;1549;-41
2022/12/21 04:02:26;;;;;;;;;;;;;;;;;;5113227;28;1960;-42
2022/12/21 04:05:06;;;;;;;;;;;;;;;;;;5113012;28;1638;-43
2022/12/21 04:07:34;;;;;;;;;;;;;;;;;;5112969;28;1649;-44
2022/12/21 04:10:05;;;;;;;;;;;;;;;;;;5112906;28;2096;-41
2022/12/21 04:12:39;;;;;;;;;;;;;;;;;;5112748;28;1750;-41
2022/12/21 04:15:09;;;;;;;;;;;;;;;;;;5112999;28;1814;-41
2022/12/21 04:17:37;;;;;;;;;;;;;;;;;;5112971;28;2336;-41
2022/12/21 04:20:05;;;;;;;;;;;;;;;;;;5112831;28;1946;-42
2022/12/21 04:28:13;;;;;;;;;;;;;;;;;;5092621;28;1921;-41
2022/12/21 04:31:00;;;;;;;;;;;;;;;;;;5091574;28;1616;-41
2022/12/21 04:33:29;;;;;;;;;;;;;;;;;;5092444;28;1290;-42
2022/12/21 04:38:44;;;;;;;;;;;;;;;;;;5092040;28;1771;-41
2022/12/21 04:41:11;;;;;;;;;;;;;;;;;;5091759;28;2115;-41
2022/12/21 04:43:39;;;;;;;;;;;;;;;;;;5091680;28;1582;-41
2022/12/21 04:46:11;;;;;;;;;;;;;;;;;;5091945;28;1696;-42
2022/12/21 04:48:39;;;;;;;;;;;;;;;;;;5092047;28;1952;-41
2022/12/21 04:51:16;;;;;;;;;;;;;;;;;;5092031;28;1833;-48
2022/12/21 04:53:44;;;;;;;;;;;;;;;;;;5091807;28;1949;-41
2022/12/21 04:56:11;;;;;;;;;;;;;;;;;;5091302;28;1913;-41
2022/12/21 04:58:39;;;;;;;;;;;;;;;;;;5091515;28;1898;-42
2022/12/21 05:01:09;;;;;;;;;;;;;;;;;;5091933;28;1832;-42
2022/12/21 05:03:37;;;;;;;;;;;;;;;;;;5091740;28;2238;-40
2022/12/21 05:06:05;;;;;;;;;;;;;;;;;;5109191;28;1711;-41
2022/12/21 05:08:32;;;;;;;;;;;;;;;;;;5111777;28;1925;-40
2022/12/21 05:11:15;;;;;;;;;;;;;;;;;;5111891;28;2169;-41
2022/12/21 05:13:43;;;;;;;;;;;;;;;;;;5111956;28;1599;-41
2022/12/21 05:16:12;;;;;;;;;;;;;;;;;;5110528;28;2271;-41
2022/12/21 05:18:39;;;;;;;;;;;;;;;;;;5111454;28;1529;-41
2022/12/21 05:21:07;;;;;;;;;;;;;;;;;;5111454;28;1745;-41
2022/12/21 05:23:34;;;;;;;;;;;;;;;;;;5111657;28;1601;-41
2022/12/21 05:26:02;;;;;;;;;;;;;;;;;;5111741;28;1779;-41
2022/12/21 05:28:37;;;;;;;;;;;;;;;;;;5111563;28;1991;-41
2022/12/21 05:31:05;;;;;;;;;;;;;;;;;;5111638;28;2092;-41
2022/12/21 05:33:32;;;;;;;;;;;;;;;;;;5111746;28;1916;-42
2022/12/21 05:36:03;;;;;;;;;;;;;;;;;;5111621;28;1914;-41
2022/12/21 05:38:30;;;;;;;;;;;;;;;;;;5111244;28;1813;-43
2022/12/21 05:40:57;;;;;;;;;;;;;;;;;;5111554;28;1368;-41
2022/12/21 05:43:24;;;;;;;;;;;;;;;;;;5110518;28;2010;-42
2022/12/21 05:45:52;;;;;;;;;;;;;;;;;;5111605;28;1831;-41
2022/12/21 05:48:20;;;;;;;;;;;;;;;;;;5111516;28;1453;-41
2022/12/21 05:50:47;;;;;;;;;;;;;;;;;;5111359;28;1565;-42
2022/12/21 05:53:14;;;;;;;;;;;;;;;;;;5111371;28;1414;-41
2022/12/21 05:55:44;;;;;;;;;;;;;;;;;;5111287;28;1799;-41
2022/12/21 05:58:12;;;;;;;;;;;;;;;;;;5110802;28;1917;-41
2022/12/21 06:00:39;;;;;;;;;;;;;;;;;;5111312;28;1573;-43
2022/12/21 06:03:06;;;;;;;;;;;;;;;;;;5111207;28;1711;-41
2022/12/21 06:05:37;;;;;;;;;;;;;;;;;;5100054;28;10150;-42
2022/12/21 06:08:04;;;;;;;;;;;;;;;;;;5111190;28;2208;-43
2022/12/21 06:10:34;;;;;;;;;;;;;;;;;;5111225;28;1759;-41
2022/12/21 06:13:01;;;;;;;;;;;;;;;;;;5111444;28;1431;-41
2022/12/21 06:15:28;;;;;;;;;;;;;;;;;;5110674;28;1425;-41
2022/12/21 06:17:56;;;;;;;;;;;;;;;;;;5109916;28;1914;-41
2022/12/21 06:20:29;;;;;;;;;;;;;;;;;;5110755;28;1508;-41
2022/12/21 06:22:56;;;;;;;;;;;;;;;;;;5110808;28;1997;-41
2022/12/21 06:25:24;;;;;;;;;;;;;;;;;;5111065;28;1491;-41
2022/12/21 06:27:51;;;;;;;;;;;;;;;;;;5110999;28;1937;-41
2022/12/21 06:30:19;;;;;;;;;;;;;;;;;;5110771;28;2021;-41
2022/12/21 06:32:46;;;;;;;;;;;;;;;;;;5111020;28;2115;-41
2022/12/21 06:35:13;;;;;;;;;;;;;;;;;;5110935;28;1462;-41
2022/12/21 06:37:40;;;;;;;;;;;;;;;;;;5111110;28;1984;-42
2022/12/21 06:40:08;;;;;;;;;;;;;;;;;;5110843;28;1855;-41
2022/12/21 06:42:35;;;;;;;;;;;;;;;;;;5110907;28;2119;-41
2022/12/21 06:45:02;;;;;;;;;;;;;;;;;;5109686;28;2105;-41
2022/12/21 06:47:31;;;;;;;;;;;;;;;;;;5110160;28;1828;-41
2022/12/21 06:49:58;;;;;;;;;;;;;;;;;;5110394;28;1365;-42
2022/12/21 06:52:26;;;;;;;;;;;;;;;;;;5110641;28;2163;-41
2022/12/21 06:54:53;;;;;;;;;;;;;;;;;;5111772;28;1994;-41
2022/12/21 06:57:20;;;;;;;;;;;;;;;;;;5114228;28;1978;-42
2022/12/21 06:59:47;;;;;;;;;;;;;;;;;;5113943;28;1748;-42
2022/12/21 07:02:14;;;;;;;;;;;;;;;;;;5114491;27;2026;-41
2022/12/21 07:04:42;;;;;;;;;;;;;;;;;;5114160;28;2236;-41
2022/12/21 07:07:09;;;;;;;;;;;;;;;;;;5114217;28;1792;-41
2022/12/21 07:09:36;;;;;;;;;;;;;;;;;;5114051;28;2077;-41
2022/12/21 07:12:03;;;;;;;;;;;;;;;;;;5114032;28;1553;-40
2022/12/21 07:14:31;;;;;;;;;;;;;;;;;;5113899;28;1625;-41
2022/12/21 07:16:58;;;;;;;;;;;;;;;;;;5114078;28;1927;-41
2022/12/21 07:19:26;;;;;;;;;;;;;;;;;;5114065;28;1610;-40
2022/12/21 07:21:53;;;;;;;;;;;;;;;;;;5113911;27;2148;-41
2022/12/21 07:24:21;;;;;;;;;;;;;;;;;;5113768;28;1920;-40
2022/12/21 07:26:48;;;;;;;;;;;;;;;;;;5113701;28;1502;-42
2022/12/21 07:29:15;;;;;;;;;;;;;;;;;;5113972;28;1791;-41
2022/12/21 07:31:42;;;;;;;;;;;;;;;;;;5113529;28;2167;-41
2022/12/21 07:34:12;;;;;;;;;;;;;;;;;;5113664;28;1948;-41
2022/12/21 07:36:39;;;;;;;;;;;;;;;;;;5113269;28;2024;-41
2022/12/21 07:39:06;;;;;;;;;;;;;;;;;;5113893;28;1446;-41
2022/12/21 07:41:34;;;;;;;;;;;;;;;;;;5113243;28;2150;-41
2022/12/21 07:44:01;;;;;;;;;;;;;;;;;;5113396;28;1923;-40
2022/12/21 07:46:51;;;;;;;;;;;;;;;;;;5112778;28;1753;-41
2022/12/21 07:49:23;;;;;;;;;;;;;;;;;;5111978;28;1685;-41
2022/12/21 07:51:50;;;;;;;;;;;;;;;;;;5113107;28;2123;-41
2022/12/21 07:54:19;;;;;;;;;;;;;;;;;;5113283;28;1281;-41
2022/12/21 07:56:46;;;;;;;;;;;;;;;;;;5113433;28;1970;-40
2022/12/21 07:59:13;;;;;;;;;;;;;;;;;;5113156;27;1861;-41
2022/12/21 08:01:40;;;;;;;;;;;;;;;;;;5112604;28;1535;-43
2022/12/21 08:04:08;;;;;;;;;;;;;;;;;;5112797;28;1882;-42
2022/12/21 08:06:35;;;;;;;;;;;;;;;;;;5111820;28;2158;-40
2022/12/21 08:09:07;;;;;;;;;;;;;;;;;;5113157;28;1566;-41
2022/12/21 08:11:35;;;;;;;;;;;;;;;;;;5112819;28;1298;-41
2022/12/21 08:14:02;;;;;;;;;;;;;;;;;;5112639;28;1741;-40
2022/12/21 08:16:29;;;;;;;;;;;;;;;;;;5113307;28;1797;-41
2022/12/21 08:18:57;;;;;;;;;;;;;;;;;;5112980;28;2076;-41
2022/12/21 08:21:24;;;;;;;;;;;;;;;;;;5112925;28;1248;-41
2022/12/21 08:23:51;;;;;;;;;;;;;;;;;;5112956;28;1959;-41
2022/12/21 08:26:18;;;;;;;;;;;;;;;;;;5112754;28;1732;-44
2022/12/21 08:28:47;;;;;;;;;;;;;;;;;;5112856;28;2150;-41
2022/12/21 08:31:15;;;;;;;;;;;;;;;;;;5112771;28;1660;-41
2022/12/21 08:33:43;;;;;;;;;;;;;;;;;;5111491;28;2081;-41
2022/12/21 08:36:12;;;;;;;;;;;;;;;;;;5112763;28;1887;-41
2022/12/21 08:38:39;;;;;;;;;;;;;;;;;;5112480;28;1964;-41
2022/12/21 08:41:26;;;;;;;;;;;;;;;;;;5112323;28;1656;-42
2022/12/21 08:43:55;;;;;;;;;;;;;;;;;;5112129;28;2130;-41
2022/12/21 08:46:22;;;;;;;;;;;;;;;;;;5110540;28;2369;-40
2022/12/21 08:48:50;;;;;;;;;;;;;;;;;;5112543;28;1464;-41
2022/12/21 08:51:17;;;;;;;;;;;;;;;;;;5112018;28;1771;-43
2022/12/21 08:53:44;;;;;;;;;;;;;;;;;;5112297;28;1918;-40
2022/12/21 08:56:17;;;;;;;;;;;;;;;;;;5112108;28;2315;-44
2022/12/21 08:58:44;;;;;;;;;;;;;;;;;;5112072;28;1915;-41
2022/12/21 09:01:11;;;;;;;;;;;;;;;;;;5112089;28;1805;-40
2022/12/21 09:03:39;;;;;;;;;;;;;;;;;;5111756;28;1710;-41
2022/12/21 09:06:06;;;;;;;;;;;;;;;;;;5111463;28;1398;-40
2022/12/21 09:08:35;;;;;;;;;;;;;;;;;;5112155;28;1956;-45
2022/12/21 09:11:04;;;;;;;;;;;;;;;;;;5111807;28;1565;-41
2022/12/21 09:13:31;;;;;;;;;;;;;;;;;;5111740;28;2199;-41
2022/12/21 09:15:58;;;;;;;;;;;;;;;;;;5112332;28;1884;-41
2022/12/21 09:18:25;;;;;;;;;;;;;;;;;;5111577;28;1976;-41
2022/12/21 09:20:53;;;;;;;;;;;;;;;;;;5111888;28;1951;-41
2022/12/21 09:23:21;;;;;;;;;;;;;;;;;;5111627;28;1473;-40
2022/12/21 09:25:48;;;;;;;;;;;;;;;;;;5112112;28;2125;-42
2022/12/21 09:28:15;;;;;;;;;;;;;;;;;;5111767;28;1603;-41
2022/12/21 09:30:42;;;;;;;;;;;;;;;;;;5111808;28;1730;-41
2022/12/21 09:33:10;;;;;;;;;;;;;;;;;;5111463;28;1661;-41
2022/12/21 09:35:37;;;;;;;;;;;;;;;;;;5111086;28;1568;-40
2022/12/21 09:38:05;;;;;;;;;;;;;;;;;;5111230;28;2165;-41
2022/12/21 09:40:33;;;;;;;;;;;;;;;;;;5111407;28;2081;-41
2022/12/21 09:43:18;;;;;;;;;;;;;;;;;;5111627;27;1027;-41
2022/12/21 09:46:00;;;;;;;;;;;;;;;;;;5110644;28;1553;-41
2022/12/21 09:48:30;;;;;;;;;;;;;;;;;;5111637;28;1438;-40
2022/12/21 09:51:01;;;;;;;;;;;;;;;;;;5111695;28;1800;-41
2022/12/21 09:53:55;;;;;;;;;;;;;;;;;;5110196;28;1477;-45
2022/12/21 09:56:23;;;;;;;;;;;;;;;;;;5103027;28;1385;-41
2022/12/21 09:58:51;;;;;;;;;;;;;;;;;;5111011;28;1908;-41
2022/12/21 10:01:25;;;;;;;;;;;;;;;;;;5111399;28;1382;-40
2022/12/21 10:04:12;;;;;;;;;;;;;;;;;;5110959;28;2211;-40
2022/12/21 10:07:08;;;;;;;;;;;;;;;;;;5086986;28;1788;-42
2022/12/21 10:09:36;;;;;;;;;;;;;;;;;;5090641;28;1721;-40
2022/12/21 10:12:11;;;;;;;;;;;;;;;;;;5090683;28;1489;-40
2022/12/21 10:14:50;;;;;;;;;;;;;;;;;;5090356;28;1735;-41
2022/12/21 10:17:17;;;;;;;;;;;;;;;;;;5089337;28;2168;-42
2022/12/21 10:20:16;;;;;;;;;;;;;;;;;;5090494;28;1717;-41
2022/12/21 10:22:45;;;;;;;;;;;;;;;;;;5090912;28;1267;-41
2022/12/21 10:25:15;;;;;;;;;;;;;;;;;;5090651;28;1277;-41
2022/12/21 10:27:48;;;;;;;;;;;;;;;;;;5089339;28;1939;-43
2022/12/21 10:30:16;;;;;;;;;;;;;;;;;;5092741;28;1834;-41
2022/12/21 10:32:47;;;;;;;;;;;;;;;;;;5094416;28;1294;-41
2022/12/21 10:35:17;;;;;;;;;;;;;;;;;;5094116;28;1818;-41
2022/12/21 10:37:46;;;;;;;;;;;;;;;;;;5094308;28;2303;-40
2022/12/21 10:40:14;;;;;;;;;;;;;;;;;;5094407;28;2139;-41
2022/12/21 10:42:43;;;;;;;;;;;;;;;;;;5094445;28;1287;-49
2022/12/21 10:45:15;;;;;;;;;;;;;;;;;;5094276;28;2009;-41
2022/12/21 10:47:47;;;;;;;;;;;;;;;;;;5094578;28;2035;-41
2022/12/21 10:50:14;;;;;;;;;;;;;;;;;;5094055;28;1879;-41
2022/12/21 10:52:44;;;;;;;;;;;;;;;;;;5094049;28;1309;-41
2022/12/21 10:55:17;;;;;;;;;;;;;;;;;;5093967;28;1317;-41
2022/12/21 10:57:49;;;;;;;;;;;;;;;;;;5093593;28;1913;-40
2022/12/21 11:00:26;;;;;;;;;;;;;;;;;;5094061;28;1947;-40
2022/12/21 11:02:56;;;;;;;;;;;;;;;;;;5093882;28;2053;-42
2022/12/21 11:05:29;;;;;;;;;;;;;;;;;;5105973;28;1655;-41
2022/12/21 11:08:14;;;;;;;;;;;;;;;;;;5114347;28;1937;-41
2022/12/21 11:10:43;;;;;;;;;;;;;;;;;;5114422;28;1538;-42
2022/12/21 11:13:21;;;;;;;;;;;;;;;;;;5113627;28;2170;-41
2022/12/21 11:16:06;;;;;;;;;;;;;;;;;;5113881;28;1707;-41
2022/12/21 11:18:36;;;;;;;;;;;;;;;;;;5114160;28;1913;-41
2022/12/21 11:21:09;;;;;;;;;;;;;;;;;;5113423;28;2157;-41
2022/12/21 11:23:36;;;;;;;;;;;;;;;;;;5114190;28;1859;-41
2022/12/21 11:26:12;;;;;;;;;;;;;;;;;;5113998;28;1865;-41
2022/12/21 11:28:39;;;;;;;;;;;;;;;;;;5113782;28;1546;-41
2022/12/21 11:31:06;;;;;;;;;;;;;;;;;;5114016;28;1470;-41
2022/12/21 11:33:33;;;;;;;;;;;;;;;;;;5113235;28;2402;-41
2022/12/21 11:36:05;;;;;;;;;;;;;;;;;;5113743;28;1759;-41
2022/12/21 11:38:36;;;;;;;;;;;;;;;;;;5113632;28;2033;-41
2022/12/21 11:41:08;;;;;;;;;;;;;;;;;;5113480;28;1932;-41
2022/12/21 11:43:46;;;;;;;;;;;;;;;;;;5112370;28;1303;-41
2022/12/21 11:46:13;;;;;;;;;;;;;;;;;;5113313;28;1857;-41
2022/12/21 11:49:19;;;;;;;;;;;;;;;;;;5113755;28;1559;-41
2022/12/21 11:51:52;;;;;;;;;;;;;;;;;;5113298;28;1567;-41
2022/12/21 11:54:27;;;;;;;;;;;;;;;;;;5113383;27;1522;-41
2022/12/21 11:57:06;;;;;;;;;;;;;;;;;;5112970;28;1796;-41
2022/12/21 11:59:43;;;;;;;;;;;;;;;;;;5113361;27;1918;-46
2022/12/21 12:02:31;;;;;;;;;;;;;;;;;;5113190;28;1611;-41
2022/12/21 12:05:12;;;;;;;;;;;;;;;;;;5113468;28;1675;-43
2022/12/21 12:07:39;;;;;;;;;;;;;;;;;;5113086;28;1807;-41
2022/12/21 12:10:16;;;;;;;;;;;;;;;;;;5112789;28;1440;-41
2022/12/21 12:12:50;;;;;;;;;;;;;;;;;;5112364;28;1728;-41
2022/12/21 12:15:23;;;;;;;;;;;;;;;;;;5113052;28;1394;-42
2022/12/21 12:18:08;;;;;;;;;;;;;;;;;;5112872;28;1997;-42
2022/12/21 12:20:45;;;;;;;;;;;;;;;;;;5112763;28;1921;-41
2022/12/21 12:23:23;;;;;;;;;;;;;;;;;;5112954;28;1921;-41
2022/12/21 12:25:53;;;;;;;;;;;;;;;;;;5112667;27;1402;-41
2022/12/21 12:28:47;;;;;;;;;;;;;;;;;;5112241;28;1599;-42
2022/12/21 12:31:26;;;;;;;;;;;;;;;;;;5112917;27;2208;-42
2022/12/21 12:34:01;;;;;;;;;;;;;;;;;;5112378;28;1223;-42
2022/12/21 12:36:38;;;;;;;;;;;;;;;;;;5112560;28;1831;-41
2022/12/21 12:39:08;;;;;;;;;;;;;;;;;;5112133;28;1907;-42
2022/12/21 12:41:39;;;;;;;;;;;;;;;;;;5112406;28;1804;-41
2022/12/21 12:44:25;;;;;;;;;;;;;;;;;;5112244;28;1895;-42
2022/12/21 12:47:01;;;;;;;;;;;;;;;;;;5111937;27;1258;-41
2022/12/21 12:49:42;;;;;;;;;;;;;;;;;;5112149;28;1250;-41
2022/12/21 12:52:23;;;;;;;;;;;;;;;;;;5111386;28;1600;-42
2022/12/21 12:55:29;;;;;;;;;;;;;;;;;;5111789;28;1992;-41
2022/12/21 12:58:11;;;;;;;;;;;;;;;;;;5069440;28;2222;-40
2022/12/21 13:00:45;;;;;;;;;;;;;;;;;;5069238;28;2145;-41
2022/12/21 13:03:18;;;;;;;;;;;;;;;;;;5096563;28;1477;-41
2022/12/21 13:05:48;;;;;;;;;;;;;;;;;;5111862;28;1964;-41
2022/12/21 13:08:27;;;;;;;;;;;;;;;;;;5112093;28;1901;-41
2022/12/21 13:10:57;;;;;;;;;;;;;;;;;;5111664;28;2223;-41
2022/12/21 13:13:45;;;;;;;;;;;;;;;;;;5111811;28;1255;-41
2022/12/21 13:16:12;;;;;;;;;;;;;;;;;;5111459;28;1777;-40
2022/12/21 13:18:46;;;;;;;;;;;;;;;;;;5111473;28;1982;-42
2022/12/21 13:21:14;;;;;;;;;;;;;;;;;;5111477;28;1919;-41
2022/12/21 13:23:44;;;;;;;;;;;;;;;;;;5111559;28;1588;-41
2022/12/21 13:26:15;;;;;;;;;;;;;;;;;;5110808;28;1595;-40
2022/12/21 13:28:48;;;;;;;;;;;;;;;;;;5111407;28;1748;-41
2022/12/21 13:31:16;;;;;;;;;;;;;;;;;;5111855;28;839;-40
2022/12/21 13:33:47;;;;;;;;;;;;;;;;;;5110366;28;1362;-41
2022/12/21 13:36:16;;;;;;;;;;;;;;;;;;5112242;28;1683;-41
2022/12/21 13:38:47;;;;;;;;;;;;;;;;;;5111781;28;1913;-41
2022/12/21 13:41:17;;;;;;;;;;;;;;;;;;5111347;28;1833;-40
2022/12/21 13:43:47;;;;;;;;;;;;;;;;;;5111381;28;1419;-42
2022/12/21 13:46:34;;;;;;;;;;;;;;;;;;5111192;28;1713;-41
2022/12/21 13:49:21;;;;;;;;;;;;;;;;;;5111412;28;1443;-41
2022/12/21 13:52:04;;;;;;;;;;;;;;;;;;5111413;28;2104;-41
2022/12/21 13:54:50;;;;;;;;;;;;;;;;;;5111200;28;1876;-42
2022/12/21 13:57:27;;;;;;;;;;;;;;;;;;5110635;28;1944;-42
2022/12/21 14:00:01;;;;;;;;;;;;;;;;;;5111307;28;2002;-41
2022/12/21 14:02:45;;;;;;;;;;;;;;;;;;5111319;28;1784;-43
2022/12/21 14:05:17;;;;;;;;;;;;;;;;;;5113463;28;1554;-42
2022/12/21 14:08:03;;;;;;;;;;;;;;;;;;5115038;28;1236;-41
2022/12/21 14:10:32;;;;;;;;;;;;;;;;;;5115097;28;1689;-41
2022/12/21 14:13:07;;;;;;;;;;;;;;;;;;5115493;27;1718;-42
2022/12/21 14:15:42;;;;;;;;;;;;;;;;;;5115529;28;1800;-41
2022/12/21 14:18:13;;;;;;;;;;;;;;;;;;5115019;28;1903;-41
2022/12/21 14:20:41;;;;;;;;;;;;;;;;;;5114799;28;1654;-41
2022/12/21 14:23:28;;;;;;;;;;;;;;;;;;5114960;28;1359;-42
2022/12/21 14:25:56;;;;;;;;;;;;;;;;;;5115316;28;2252;-41
2022/12/21 14:28:41;;;;;;;;;;;;;;;;;;5114211;28;2337;-41
2022/12/21 14:31:09;;;;;;;;;;;;;;;;;;5115130;27;1352;-42
2022/12/21 14:33:39;;;;;;;;;;;;;;;;;;5114663;28;1747;-42
2022/12/21 14:36:14;;;;;;;;;;;;;;;;;;5115076;28;1383;-42
2022/12/21 14:39:06;;;;;;;;;;;;;;;;;;5113537;28;1913;-42
2022/12/21 14:41:40;;;;;;;;;;;;;;;;;;5114511;28;1820;-41
2022/12/21 14:44:28;;;;;;;;;;;;;;;;;;5115092;28;1289;-42
2022/12/21 14:47:04;;;;;;;;;;;;;;;;;;5114895;28;2252;-41
2022/12/21 14:49:36;;;;;;;;;;;;;;;;;;5114977;28;1748;-42
2022/12/21 14:52:15;;;;;;;;;;;;;;;;;;5114419;28;2298;-41
2022/12/21 14:54:46;;;;;;;;;;;;;;;;;;5114623;28;2319;-44
2022/12/21 14:57:16;;;;;;;;;;;;;;;;;;5114605;27;1629;-41
2022/12/21 14:59:46;;;;;;;;;;;;;;;;;;5114183;28;1969;-42
2022/12/21 15:02:36;;;;;;;;;;;;;;;;;;5114237;28;2068;-43
2022/12/21 15:05:05;;;;;;;;;;;;;;;;;;5114455;28;1221;-41
2022/12/21 15:07:53;;;;;;;;;;;;;;;;;;5114082;27;1753;-40
2022/12/21 15:10:26;;;;;;;;;;;;;;;;;;5113320;28;1962;-42
2022/12/21 15:13:23;;;;;;;;;;;;;;;;;;5114417;28;1484;-42
2022/12/21 15:16:10;;;;;;;;;;;;;;;;;;5113555;28;1738;-44
2022/12/21 15:18:39;;;;;;;;;;;;;;;;;;5103384;28;1911;-43
2022/12/21 15:21:24;;;;;;;;;;;;;;;;;;5114018;28;1685;-42
2022/12/21 15:23:53;;;;;;;;;;;;;;;;;;5113973;28;1678;-42
2022/12/21 15:26:25;;;;;;;;;;;;;;;;;;5114209;28;2028;-43
2022/12/21 15:29:06;;;;;;;;;;;;;;;;;;5113888;28;1982;-43
2022/12/21 15:32:26;;;;;;;;;;;;;;;;;;5113739;28;1940;-43
2022/12/21 15:35:35;;;;;;;;;;;;;;;;;;5093630;28;1478;-42
2022/12/21 15:38:47;;;;;;;;;;;;;;;;;;5092874;28;1922;-42
2022/12/21 15:42:11;;;;;;;;;;;;;;;;;;5093248;28;1555;-43
2022/12/21 15:45:21;;;;;;;;;;;;;;;;;;5092737;28;1411;-42
2022/12/21 15:47:59;;;;;;;;;;;;;;;;;;5093370;28;1886;-41
2022/12/21 15:50:32;;;;;;;;;;;;;;;;;;5091519;28;1484;-42
2022/12/21 15:53:03;;;;;;;;;;;;;;;;;;5093208;28;2024;-43
2022/12/21 15:55:32;;;;;;;;;;;;;;;;;;5093273;28;1829;-41
2022/12/21 15:58:05;;;;;;;;;;;;;;;;;;5093434;28;1816;-42
2022/12/21 16:00:51;;;;;;;;;;;;;;;;;;5092864;28;1910;-41
2022/12/21 16:03:18;;;;;;;;;;;;;;;;;;5092583;28;1546;-42
2022/12/21 16:05:45;;;;;;;;;;;;;;;;;;5107466;28;1921;-42
2022/12/21 16:08:18;;;;;;;;;;;;;;;;;;5113235;28;1902;-42
2022/12/21 16:10:50;;;;;;;;;;;;;;;;;;5112911;28;1663;-42
2022/12/21 16:13:28;;;;;;;;;;;;;;;;;;5113142;28;1885;-42
2022/12/21 16:16:00;;;;;;;;;;;;;;;;;;5113096;28;1866;-41
2022/12/21 16:18:35;;;;;;;;;;;;;;;;;;5112780;28;2113;-42
2022/12/21 16:21:07;;;;;;;;;;;;;;;;;;5113467;28;1716;-42
2022/12/21 16:23:36;;;;;;;;;;;;;;;;;;5112996;28;1707;-43
2022/12/21 16:26:05;;;;;;;;;;;;;;;;;;5112823;28;2260;-42
2022/12/21 16:28:35;;;;;;;;;;;;;;;;;;5111798;28;2048;-41
2022/12/21 16:31:05;;;;;;;;;;;;;;;;;;5112360;28;1493;-42
2022/12/21 16:33:36;;;;;;;;;;;;;;;;;;5112939;28;1637;-42
2022/12/21 16:36:04;;;;;;;;;;;;;;;;;;5112844;28;1795;-42
2022/12/21 16:38:35;;;;;;;;;;;;;;;;;;5112989;28;1904;-42
2022/12/21 16:41:04;;;;;;;;;;;;;;;;;;5112380;28;1966;-42
2022/12/21 16:43:32;;;;;;;;;;;;;;;;;;5112770;28;1695;-42
2022/12/21 16:46:05;;;;;;;;;;;;;;;;;;5112730;28;1461;-42
2022/12/21 16:48:39;;;;;;;;;;;;;;;;;;5112603;28;1630;-41
2022/12/21 16:51:07;;;;;;;;;;;;;;;;;;5110866;28;2182;-42
2022/12/21 16:53:34;;;;;;;;;;;;;;;;;;5112273;28;1279;-42
2022/12/21 16:56:20;;;;;;;;;;;;;;;;;;5112508;28;1587;-42
2022/12/21 16:58:47;;;;;;;;;;;;;;;;;;5112014;28;1985;-42
2022/12/21 17:01:21;;;;;;;;;;;;;;;;;;5112109;28;1725;-41
2022/12/21 17:04:02;;;;;;;;;;;;;;;;;;5087169;27;8716;-42
2022/12/21 17:06:35;;;;;;;;;;;;;;;;;;5092030;28;1299;-45
2022/12/21 17:09:06;;;;;;;;;;;;;;;;;;5091604;28;1818;-41
2022/12/21 17:11:33;;;;;;;;;;;;;;;;;;5090091;28;2207;-42
2022/12/21 17:14:01;;;;;;;;;;;;;;;;;;5091725;28;1899;-42
2022/12/21 17:16:39;;;;;;;;;;;;;;;;;;5091468;28;2294;-41
2022/12/21 17:19:22;;;;;;;;;;;;;;;;;;5089633;28;1913;-42
2022/12/21 17:21:58;;;;;;;;;;;;;;;;;;5090055;28;1385;-42
2022/12/21 17:24:31;;;;;;;;;;;;;;;;;;5091179;28;1522;-41
2022/12/21 17:27:04;;;;;;;;;;;;;;;;;;5091267;28;1797;-42
2022/12/21 17:29:31;;;;;;;;;;;;;;;;;;5091779;28;1450;-41
2022/12/21 17:31:58;;;;;;;;;;;;;;;;;;5091318;28;2621;-42
2022/12/21 17:34:26;;;;;;;;;;;;;;;;;;5090612;28;1269;-41
2022/12/21 17:36:54;;;;;;;;;;;;;;;;;;5093333;28;1840;-42
2022/12/21 17:39:21;;;;;;;;;;;;;;;;;;5111402;28;2099;-42
2022/12/21 17:41:49;;;;;;;;;;;;;;;;;;5111671;28;1820;-42
2022/12/21 17:44:16;;;;;;;;;;;;;;;;;;5111462;28;2010;-42
2022/12/21 17:47:04;;;;;;;;;;;;;;;;;;5111191;28;1507;-42
2022/12/21 17:49:32;;;;;;;;;;;;;;;;;;5111374;28;1961;-43
2022/12/21 17:52:01;;;;;;;;;;;;;;;;;;5111251;28;1740;-43